createdAt,value
2019-05-02T00:01:42.101Z,8.37
2019-05-02T00:04:12.397Z,7.70
2019-05-02T00:06:44.274Z,8.13
2019-05-02T00:09:13.757Z,8.70
2019-05-02T00:11:43.633Z,8.07
2019-05-02T00:14:12.978Z,8.90
2019-05-02T00:16:45.227Z,7.93
2019-05-02T00:19:14.261Z,7.97
2019-05-02T00:21:44.600Z,7.60
2019-05-02T00:24:13.838Z,7.60
2019-05-02T00:26:44.405Z,8.27
2019-05-02T00:29:13.588Z,8.10
2019-05-02T00:31:46.806Z,7.80
2019-05-02T00:34:13.387Z,7.53
2019-05-02T00:36:42.314Z,8.60
2019-05-02T00:39:13.721Z,8.30
2019-05-02T00:41:42.218Z,8.43
2019-05-02T00:44:12.331Z,9.10
2019-05-02T00:46:41.566Z,8.23
2019-05-02T00:49:10.494Z,8.07
2019-05-02T00:51:39.481Z,8.27
2019-05-02T00:54:08.477Z,7.87
2019-05-02T00:56:40.173Z,8.77
2019-05-02T00:59:08.870Z,8.30
2019-05-02T01:01:59.954Z,8.63
2019-05-02T01:04:32.684Z,8.73
2019-05-02T01:07:02.010Z,7.40
2019-05-02T01:09:32.636Z,7.63
2019-05-02T01:12:03.178Z,8.03
2019-05-02T01:14:33.238Z,8.07
2019-05-02T01:17:02.361Z,8.03
2019-05-02T01:19:31.273Z,8.07
2019-05-02T01:22:00.269Z,7.83
2019-05-02T01:24:29.205Z,7.90
2019-05-02T01:27:13.854Z,8.70
2019-05-02T01:29:51.278Z,7.97
2019-05-02T01:32:36.601Z,8.37
2019-05-02T01:35:14.137Z,8.10
2019-05-02T01:38:11.165Z,7.93
2019-05-02T01:40:40.445Z,8.17
2019-05-02T01:43:23.962Z,8.13
2019-05-02T01:45:52.915Z,8.50
2019-05-02T01:48:22.065Z,7.60
2019-05-02T01:50:51.074Z,6.87
2019-05-02T01:53:20.069Z,8.13
2019-05-02T01:55:51.978Z,7.23
2019-05-02T01:58:20.931Z,7.67
2019-05-02T02:00:50.561Z,7.43
2019-05-02T02:03:19.901Z,7.70
2019-05-02T02:05:48.961Z,6.20
2019-05-02T02:08:17.969Z,6.90
2019-05-02T02:10:50.452Z,7.53
2019-05-02T02:13:18.018Z,6.67
2019-05-02T02:15:47.002Z,7.03
2019-05-02T02:18:17.204Z,7.03
2019-05-02T02:20:59.048Z,6.33
2019-05-02T02:23:50.941Z,6.53
2019-05-02T02:26:20.624Z,6.43
2019-05-02T02:28:49.713Z,6.53
2019-05-02T02:31:20.455Z,6.67
2019-05-02T02:33:49.872Z,5.77
2019-05-02T02:36:30.273Z,6.03
2019-05-02T02:38:49.936Z,6.93
2019-05-02T02:41:18.932Z,6.10
2019-05-02T02:44:05.304Z,6.03
2019-05-02T02:46:37.731Z,6.07
2019-05-02T02:49:06.030Z,5.50
2019-05-02T02:51:34.951Z,5.47
2019-05-02T02:54:05.844Z,6.40
2019-05-02T02:56:40.689Z,5.67
2019-05-02T02:59:05.777Z,6.10
2019-05-02T03:01:34.766Z,5.07
2019-05-02T03:04:09.690Z,5.90
2019-05-02T03:06:38.320Z,5.77
2019-05-02T03:09:07.050Z,6.40
2019-05-02T03:11:56.312Z,5.80
2019-05-02T03:14:29.082Z,5.57
2019-05-02T03:16:58.215Z,5.50
2019-05-02T03:19:27.302Z,5.70
2019-05-02T03:22:00.780Z,5.83
2019-05-02T03:24:27.568Z,6.60
2019-05-02T03:27:00.141Z,5.17
2019-05-02T03:29:39.749Z,6.30
2019-05-02T03:32:14.346Z,5.97
2019-05-02T03:34:44.985Z,5.43
2019-05-02T03:37:03.181Z,5.80
2019-05-02T03:39:31.907Z,5.03
2019-05-02T03:42:02.734Z,5.23
2019-05-02T03:44:32.288Z,5.17
2019-05-02T03:47:04.503Z,5.17
2019-05-02T03:49:32.037Z,6.23
2019-05-02T03:52:02.656Z,4.97
2019-05-02T03:54:32.230Z,4.77
2019-05-02T03:57:01.541Z,4.87
2019-05-02T03:59:38.980Z,5.63
2019-05-02T04:02:01.939Z,5.00
2019-05-02T04:04:31.266Z,5.50
2019-05-02T04:07:01.042Z,5.23
2019-05-02T04:09:41.881Z,5.13
2019-05-02T04:12:11.419Z,5.30
2019-05-02T04:14:39.424Z,5.60
2019-05-02T04:17:10.867Z,5.43
2019-05-02T04:19:40.899Z,4.60
2019-05-02T04:22:12.160Z,5.27
2019-05-02T04:24:47.843Z,5.93
2019-05-02T04:27:12.876Z,6.40
2019-05-02T04:29:42.294Z,6.60
2019-05-02T04:32:14.124Z,5.93
2019-05-02T04:34:42.029Z,6.27
2019-05-02T04:37:10.935Z,7.57
2019-05-02T04:39:39.925Z,6.30
2019-05-02T04:42:13.159Z,6.27
2019-05-02T04:44:52.734Z,6.30
2019-05-02T04:47:16.959Z,6.60
2019-05-02T04:49:41.077Z,6.30
2019-05-02T04:52:11.727Z,6.90
2019-05-02T04:54:40.665Z,6.10
2019-05-02T04:57:09.849Z,6.70
2019-05-02T04:59:39.729Z,6.80
2019-05-02T05:02:09.324Z,5.60
2019-05-02T05:04:45.788Z,6.77
2019-05-02T05:07:09.633Z,5.90
2019-05-02T05:09:40.084Z,6.10
2019-05-02T05:12:09.731Z,5.50
2019-05-02T05:14:43.037Z,5.00
2019-05-02T05:17:09.394Z,5.47
2019-05-02T05:19:38.762Z,5.93
2019-05-02T05:22:11.565Z,5.30
2019-05-02T05:24:43.721Z,5.00
2019-05-02T05:27:13.222Z,5.17
2019-05-02T05:29:45.913Z,4.87
2019-05-02T05:32:13.855Z,5.23
2019-05-02T05:34:42.697Z,4.37
2019-05-02T05:37:13.453Z,4.57
2019-05-02T05:39:42.963Z,4.47
2019-05-02T05:42:13.058Z,4.07
2019-05-02T05:44:42.008Z,4.47
2019-05-02T05:47:12.060Z,4.77
2019-05-02T05:49:41.704Z,4.03
2019-05-02T05:52:10.553Z,4.27
2019-05-02T05:54:41.951Z,5.10
2019-05-02T05:57:12.139Z,4.47
2019-05-02T05:59:40.836Z,4.53
2019-05-02T06:02:13.537Z,4.50
2019-05-02T06:04:41.055Z,4.47
2019-05-02T06:07:09.986Z,3.93
2019-05-02T06:09:39.092Z,4.20
2019-05-02T06:12:08.788Z,4.10
2019-05-02T06:14:38.053Z,4.17
2019-05-02T06:17:06.985Z,3.93
2019-05-02T06:19:36.198Z,3.97
2019-05-02T06:22:05.193Z,4.33
2019-05-02T06:24:34.109Z,3.80
2019-05-02T06:27:02.960Z,4.70
2019-05-02T06:29:31.986Z,4.10
2019-05-02T06:32:02.789Z,4.07
2019-05-02T06:34:31.869Z,4.00
2019-05-02T06:37:01.243Z,3.57
2019-05-02T06:39:31.996Z,4.03
2019-05-02T06:42:01.124Z,5.00
2019-05-02T06:44:29.961Z,4.13
2019-05-02T06:47:03.850Z,4.33
2019-05-02T06:49:29.674Z,3.43
2019-05-02T06:51:58.682Z,4.67
2019-05-02T06:54:27.919Z,3.37
2019-05-02T06:56:57.326Z,4.53
2019-05-02T06:59:26.317Z,5.20
2019-05-02T07:01:57.366Z,3.87
2019-05-02T07:04:26.486Z,4.10
2019-05-02T07:06:59.120Z,3.93
2019-05-02T07:09:39.503Z,4.50
2019-05-02T07:11:59.739Z,5.23
2019-05-02T07:14:27.817Z,4.37
2019-05-02T07:17:15.737Z,4.00
2019-05-02T07:19:50.753Z,3.83
2019-05-02T07:22:20.020Z,4.33
2019-05-02T07:24:49.021Z,5.00
2019-05-02T07:27:18.020Z,4.63
2019-05-02T07:29:46.934Z,4.53
2019-05-02T07:32:19.305Z,5.27
2019-05-02T07:34:48.131Z,6.40
2019-05-02T07:37:17.253Z,5.00
2019-05-02T07:39:46.286Z,5.63
2019-05-02T07:42:15.301Z,5.93
2019-05-02T07:44:44.324Z,4.90
2019-05-02T07:47:13.250Z,5.47
2019-05-02T07:49:42.241Z,5.30
2019-05-02T07:52:11.236Z,6.63
2019-05-02T07:54:40.488Z,5.67
2019-05-02T07:57:09.416Z,5.40
2019-05-02T07:59:38.509Z,6.07
2019-05-02T08:02:07.932Z,6.03
2019-05-02T08:04:37.069Z,6.23
2019-05-02T08:07:06.189Z,6.30
2019-05-02T08:09:39.266Z,4.50
2019-05-02T08:12:06.852Z,4.60
2019-05-02T08:14:37.332Z,4.80
2019-05-02T08:17:16.085Z,5.63
2019-05-02T08:19:37.604Z,6.00
2019-05-02T08:22:13.320Z,5.23
2019-05-02T08:24:39.343Z,5.20
2019-05-02T08:27:39.317Z,6.33
2019-05-02T08:30:15.922Z,5.33
2019-05-02T08:32:45.231Z,6.30
2019-05-02T08:35:14.473Z,5.83
2019-05-02T08:37:43.478Z,5.80
2019-05-02T08:40:12.681Z,6.73
2019-05-02T08:42:41.609Z,5.87
2019-05-02T08:45:10.709Z,6.70
2019-05-02T08:47:39.659Z,6.23
2019-05-02T08:50:08.716Z,6.40
2019-05-02T08:52:42.110Z,6.90
2019-05-02T08:55:09.706Z,7.70
2019-05-02T08:57:39.605Z,7.17
2019-05-02T09:00:10.221Z,7.10
2019-05-02T09:02:41.517Z,6.53
2019-05-02T09:05:09.964Z,7.67
2019-05-02T09:07:42.407Z,7.03
2019-05-02T09:10:10.310Z,7.20
2019-05-02T09:12:42.015Z,6.93
2019-05-02T09:15:11.830Z,8.10
2019-05-02T09:17:46.502Z,7.57
2019-05-02T09:20:18.823Z,8.37
2019-05-02T09:22:46.645Z,7.30
2019-05-02T09:25:13.846Z,7.10
2019-05-02T09:27:43.267Z,7.10
2019-05-02T09:30:17.163Z,7.10
2019-05-02T09:32:43.541Z,7.37
2019-05-02T09:35:12.815Z,7.00
2019-05-02T09:37:42.135Z,6.00
2019-05-02T09:40:16.341Z,5.53
2019-05-02T09:42:47.263Z,6.00
2019-05-02T09:45:22.543Z,8.77
2019-05-02T09:47:59.574Z,7.17
2019-05-02T09:50:29.670Z,6.57
2019-05-02T09:52:52.584Z,6.70
2019-05-02T09:55:22.631Z,6.60
2019-05-02T09:57:52.071Z,8.53
2019-05-02T10:00:52.481Z,6.43
2019-05-02T10:03:22.631Z,6.07
2019-05-02T10:05:52.399Z,6.10
2019-05-02T10:08:22.924Z,6.07
2019-05-02T10:10:52.413Z,6.73
2019-05-02T10:13:22.854Z,5.73
2019-05-02T10:15:52.803Z,6.50
2019-05-02T10:18:25.521Z,6.00
2019-05-02T10:20:53.290Z,6.80
2019-05-02T10:23:23.395Z,5.83
2019-05-02T10:25:52.702Z,6.03
2019-05-02T10:28:22.876Z,7.17
2019-05-02T10:30:56.515Z,6.90
2019-05-02T10:33:23.173Z,6.83
2019-05-02T10:35:52.685Z,5.70
2019-05-02T10:38:22.736Z,5.93
2019-05-02T10:40:54.808Z,5.47
2019-05-02T10:43:22.571Z,5.43
2019-05-02T10:45:56.926Z,5.57
2019-05-02T10:48:28.778Z,5.80
2019-05-02T10:51:15.726Z,5.93
2019-05-02T10:53:47.066Z,5.67
2019-05-02T10:56:15.485Z,5.87
2019-05-02T10:58:44.327Z,5.63
2019-05-02T11:01:14.466Z,5.43
2019-05-02T11:03:47.504Z,5.47
2019-05-02T11:06:16.241Z,5.57
2019-05-02T11:08:46.142Z,5.30
2019-05-02T11:11:15.330Z,5.57
2019-05-02T11:14:05.594Z,5.80
2019-05-02T11:16:49.485Z,5.77
2019-05-02T11:19:25.499Z,5.27
2019-05-02T11:21:58.737Z,4.87
2019-05-02T11:24:25.423Z,5.07
2019-05-02T11:26:54.485Z,4.53
2019-05-02T11:29:23.417Z,5.47
2019-05-02T11:31:52.349Z,4.70
2019-05-02T11:34:22.124Z,4.37
2019-05-02T11:36:52.672Z,4.33
2019-05-02T11:39:31.167Z,4.23
2019-05-02T11:41:52.933Z,4.60
2019-05-02T11:44:22.595Z,4.30
2019-05-02T11:46:52.102Z,4.80
2019-05-02T11:49:22.753Z,5.50
2019-05-02T11:51:56.926Z,5.33
2019-05-02T11:54:22.805Z,4.43
2019-05-02T11:56:53.625Z,3.97
2019-05-02T11:59:28.112Z,5.73
2019-05-02T12:02:02.761Z,4.10
2019-05-02T12:04:32.606Z,4.40
2019-05-02T12:07:04.818Z,5.73
2019-05-02T12:09:32.205Z,4.53
2019-05-02T12:12:02.569Z,3.50
2019-05-02T12:14:32.861Z,4.13
2019-05-02T12:17:02.671Z,4.30
2019-05-02T12:19:32.299Z,4.17
2019-05-02T12:22:02.619Z,3.97
2019-05-02T12:24:32.034Z,4.30
2019-05-02T12:27:02.668Z,3.20
2019-05-02T12:29:33.395Z,4.00
2019-05-02T12:32:02.711Z,4.00
2019-05-02T12:34:32.524Z,3.40
2019-05-02T12:37:01.815Z,4.20
2019-05-02T12:39:31.675Z,2.67
2019-05-02T12:42:03.075Z,3.67
2019-05-02T12:44:32.130Z,4.07
2019-05-02T12:47:02.631Z,3.53
2019-05-02T12:49:32.442Z,3.57
2019-05-02T12:52:01.817Z,3.67
2019-05-02T12:54:32.526Z,4.20
2019-05-02T12:57:02.024Z,3.40
2019-05-02T12:59:32.184Z,3.07
2019-05-02T13:02:03.548Z,3.80
2019-05-02T13:04:32.469Z,3.90
2019-05-02T13:07:02.146Z,3.10
2019-05-02T13:09:32.560Z,3.00
2019-05-02T13:12:09.229Z,3.57
2019-05-02T13:14:38.339Z,3.60
2019-05-02T13:17:07.796Z,4.13
2019-05-02T13:19:40.955Z,2.80
2019-05-02T13:22:18.702Z,2.97
2019-05-02T13:24:54.126Z,2.67
2019-05-02T13:27:22.832Z,2.60
2019-05-02T13:29:53.067Z,2.50
2019-05-02T13:32:27.093Z,2.47
2019-05-02T13:35:34.427Z,2.23
2019-05-02T13:38:05.577Z,2.20
2019-05-02T13:40:41.675Z,3.07
2019-05-02T13:43:12.454Z,2.83
2019-05-02T13:46:09.981Z,3.00
2019-05-02T13:48:39.253Z,2.97
2019-05-02T13:51:08.264Z,2.70
2019-05-02T13:53:42.491Z,2.47
2019-05-02T13:56:39.524Z,2.43
2019-05-02T13:59:10.646Z,2.40
2019-05-02T14:01:39.429Z,2.10
2019-05-02T14:04:10.524Z,2.87
2019-05-02T14:06:39.272Z,2.23
2019-05-02T14:09:44.641Z,2.67
2019-05-02T14:12:25.736Z,2.60
2019-05-02T14:14:54.729Z,1.83
2019-05-02T14:17:23.718Z,2.60
2019-05-02T14:20:07.035Z,1.87
2019-05-02T14:22:23.306Z,2.43
2019-05-02T14:24:52.308Z,2.37
2019-05-02T14:27:22.366Z,1.87
2019-05-02T14:29:52.508Z,2.47
2019-05-02T14:32:26.275Z,1.93
2019-05-02T14:34:58.190Z,1.80
2019-05-02T14:37:27.182Z,2.23
2019-05-02T14:40:04.164Z,1.93
2019-05-02T14:42:33.257Z,2.53
2019-05-02T14:45:10.707Z,2.23
2019-05-02T14:47:32.844Z,1.97
2019-05-02T14:50:05.021Z,2.70
2019-05-02T14:52:32.753Z,2.20
2019-05-02T14:55:02.918Z,2.17
2019-05-02T14:57:32.717Z,2.10
2019-05-02T15:00:03.277Z,2.60
2019-05-02T15:02:48.985Z,2.73
2019-05-02T15:05:19.168Z,2.67
2019-05-02T15:07:46.973Z,2.70
2019-05-02T15:10:16.074Z,2.50
2019-05-02T15:12:44.985Z,2.37
2019-05-02T15:15:14.567Z,2.63
2019-05-02T15:17:43.861Z,2.67
2019-05-02T15:20:13.654Z,2.00
2019-05-02T15:22:42.910Z,1.83
2019-05-02T15:25:17.539Z,3.00
2019-05-02T15:27:45.210Z,1.93
2019-05-02T15:30:16.010Z,2.13
2019-05-02T15:32:53.972Z,2.20
2019-05-02T15:35:27.713Z,2.23
2019-05-02T15:38:01.786Z,2.17
2019-05-02T15:43:02.829Z,2.43
2019-05-02T15:45:29.285Z,2.87
2019-05-02T15:47:58.605Z,2.80
2019-05-02T15:50:27.857Z,2.03
2019-05-02T15:53:06.355Z,2.30
2019-05-02T15:55:39.376Z,2.40
2019-05-02T15:58:03.694Z,2.90
2019-05-02T16:00:36.914Z,3.20
2019-05-02T16:03:05.959Z,2.93
2019-05-02T16:05:36.599Z,2.93
2019-05-02T16:08:08.813Z,2.73
2019-05-02T16:10:38.563Z,3.07
2019-05-02T16:13:08.712Z,2.70
2019-05-02T16:15:38.869Z,2.20
2019-05-02T16:18:07.874Z,3.20
2019-05-02T16:21:04.680Z,2.97
2019-05-02T16:23:32.799Z,3.23
2019-05-02T16:26:02.017Z,3.37
2019-05-02T16:28:28.381Z,2.67
2019-05-02T16:31:01.527Z,3.00
2019-05-02T16:33:31.904Z,3.13
2019-05-02T16:36:02.683Z,3.00
2019-05-02T16:38:34.796Z,3.50
2019-05-02T16:41:10.000Z,3.67
2019-05-02T16:43:33.019Z,3.87
2019-05-02T16:46:02.158Z,3.60
2019-05-02T16:48:37.476Z,3.33
2019-05-02T16:51:02.186Z,3.83
2019-05-02T16:53:33.317Z,3.63
2019-05-02T16:56:05.464Z,3.67
2019-05-02T16:58:33.686Z,4.00
2019-05-02T17:01:03.654Z,3.67
2019-05-02T17:03:32.594Z,3.67
2019-05-02T17:06:01.786Z,3.60
2019-05-02T17:08:57.412Z,4.33
2019-05-02T17:11:35.871Z,4.13
2019-05-02T17:14:07.033Z,3.60
2019-05-02T17:16:35.171Z,4.50
2019-05-02T17:19:04.175Z,4.90
2019-05-02T17:21:52.416Z,5.17
2019-05-02T17:24:04.118Z,4.63
2019-05-02T17:26:33.106Z,4.13
2019-05-02T17:29:02.527Z,4.23
2019-05-02T17:31:32.203Z,3.90
2019-05-02T17:34:02.754Z,4.27
2019-05-02T17:36:32.507Z,4.27
2019-05-02T17:39:06.394Z,3.97
2019-05-02T17:41:32.409Z,4.80
2019-05-02T17:44:03.206Z,4.17
2019-05-02T17:46:32.634Z,4.77
2019-05-02T17:49:02.557Z,4.60
2019-05-02T17:51:37.853Z,5.63
2019-05-02T17:54:08.403Z,4.93
2019-05-02T17:56:37.310Z,3.70
2019-05-02T17:59:06.313Z,3.60
2019-05-02T18:01:38.351Z,4.30
2019-05-02T18:04:12.765Z,3.83
2019-05-02T18:06:38.115Z,4.67
2019-05-02T18:09:08.718Z,5.53
2019-05-02T18:11:37.964Z,4.93
2019-05-02T18:14:18.579Z,4.90
2019-05-02T18:16:39.388Z,3.80
2019-05-02T18:19:08.482Z,4.93
2019-05-02T18:21:37.470Z,4.40
2019-05-02T18:24:06.793Z,3.67
2019-05-02T18:26:35.786Z,4.23
2019-05-02T18:29:06.899Z,3.93
2019-05-02T18:31:39.681Z,5.13
2019-05-02T18:34:06.714Z,3.63
2019-05-02T18:36:35.701Z,4.70
2019-05-02T18:39:07.194Z,3.97
2019-05-02T18:41:37.429Z,4.37
2019-05-02T18:44:06.966Z,4.40
2019-05-02T18:46:36.711Z,4.63
2019-05-02T18:49:06.860Z,5.03
2019-05-02T18:51:35.846Z,5.33
2019-05-02T18:54:07.495Z,4.90
2019-05-02T18:56:42.329Z,4.97
2019-05-02T18:59:06.225Z,4.50
2019-05-02T19:01:35.218Z,5.13
2019-05-02T19:04:04.613Z,5.47
2019-05-02T19:06:36.169Z,5.10
2019-05-02T19:09:07.917Z,4.57
2019-05-02T19:11:36.908Z,5.13
2019-05-02T19:14:06.152Z,5.63
2019-05-02T19:16:35.464Z,4.50
2019-05-02T19:19:04.466Z,3.83
2019-05-02T19:21:36.780Z,4.87
2019-05-02T19:24:04.580Z,5.27
2019-05-02T19:26:33.853Z,4.57
2019-05-02T19:29:14.273Z,4.87
2019-05-02T19:31:52.352Z,4.77
2019-05-02T19:34:25.327Z,5.23
2019-05-02T19:36:52.883Z,4.23
2019-05-02T19:39:24.219Z,6.13
2019-05-02T19:41:52.929Z,5.83
2019-05-02T19:44:28.936Z,5.77
2019-05-02T19:46:52.692Z,5.27
2019-05-02T19:49:23.086Z,4.90
2019-05-02T19:51:56.526Z,5.23
2019-05-02T19:54:23.272Z,5.30
2019-05-02T19:56:52.548Z,6.07
2019-05-02T19:59:25.214Z,5.87
2019-05-02T20:01:52.376Z,5.03
2019-05-02T20:04:22.196Z,6.30
2019-05-02T20:06:51.578Z,6.07
2019-05-02T20:09:20.650Z,6.57
2019-05-02T20:11:49.652Z,5.43
2019-05-02T20:14:18.561Z,5.73
2019-05-02T20:16:52.885Z,5.50
2019-05-02T20:19:25.451Z,5.80
2019-05-02T20:22:12.653Z,6.50
2019-05-02T20:25:00.683Z,6.30
2019-05-02T20:27:28.931Z,5.67
2019-05-02T20:29:58.080Z,5.30
2019-05-02T20:32:27.110Z,6.53
2019-05-02T20:34:56.084Z,6.17
2019-05-02T20:37:25.183Z,6.70
2019-05-02T20:39:54.178Z,6.43
2019-05-02T20:42:23.203Z,5.90
2019-05-02T20:44:52.833Z,5.33
2019-05-02T20:47:25.230Z,6.37
2019-05-02T20:49:54.254Z,6.80
2019-05-02T20:52:23.266Z,6.23
2019-05-02T20:54:52.585Z,7.43
2019-05-02T20:57:22.123Z,6.87
2019-05-02T20:59:52.538Z,7.17
2019-05-02T21:02:21.833Z,7.00
2019-05-02T21:04:52.093Z,8.27
2019-05-02T21:07:43.651Z,8.23
2019-05-02T21:10:22.273Z,8.33
2019-05-02T21:12:52.635Z,7.27
2019-05-02T21:15:21.845Z,5.50
2019-05-02T21:17:50.855Z,6.90
2019-05-02T21:20:21.777Z,6.73
2019-05-02T21:22:52.768Z,6.87
2019-05-02T21:25:23.000Z,6.87
2019-05-02T21:27:52.427Z,8.13
2019-05-02T21:30:25.449Z,7.53
2019-05-02T21:32:54.570Z,8.97
2019-05-02T21:35:23.477Z,8.10
2019-05-02T21:37:52.818Z,7.13
2019-05-02T21:40:22.708Z,6.47
2019-05-02T21:42:52.746Z,6.20
2019-05-02T21:45:22.352Z,6.33
2019-05-02T21:47:52.772Z,5.07
2019-05-02T21:50:42.809Z,5.67
2019-05-02T21:53:27.136Z,5.13
2019-05-02T21:56:12.916Z,5.13
2019-05-02T21:59:02.833Z,4.80
2019-05-02T22:01:32.911Z,5.30
2019-05-02T22:04:02.339Z,4.37
2019-05-02T22:06:32.288Z,4.33
2019-05-02T22:09:03.033Z,3.57
2019-05-02T22:11:32.428Z,2.80
2019-05-02T22:14:02.421Z,2.63
2019-05-02T22:16:32.667Z,2.37
2019-05-02T22:19:02.925Z,2.17
2019-05-02T22:21:35.147Z,2.53
2019-05-02T22:24:11.310Z,2.00
2019-05-02T22:26:33.721Z,2.03
2019-05-02T22:29:02.740Z,3.00
2019-05-02T22:31:32.407Z,2.80
2019-05-02T22:34:02.211Z,3.00
2019-05-02T22:36:32.736Z,2.83
2019-05-02T22:39:31.712Z,3.53
2019-05-02T22:42:04.216Z,3.10
2019-05-02T22:44:32.486Z,2.70
2019-05-02T22:47:01.693Z,2.77
2019-05-02T22:49:31.832Z,2.93
2019-05-02T22:52:01.105Z,3.43
2019-05-02T22:54:31.534Z,3.40
2019-05-02T22:57:02.602Z,2.90
2019-05-02T22:59:31.863Z,2.73
2019-05-02T23:02:02.150Z,2.60
2019-05-02T23:04:32.513Z,2.73
2019-05-02T23:07:02.337Z,2.50
2019-05-02T23:09:32.201Z,2.77
2019-05-02T23:12:02.886Z,2.67
2019-05-02T23:14:32.550Z,2.33
2019-05-02T23:17:02.068Z,1.90
2019-05-02T23:19:31.772Z,2.23
2019-05-02T23:22:02.131Z,1.20
2019-05-02T23:24:39.392Z,1.30
2019-05-02T23:27:37.579Z,1.10
2019-05-02T23:30:07.849Z,1.00
2019-05-02T23:32:36.761Z,1.40
2019-05-02T23:35:07.394Z,1.50
2019-05-02T23:37:36.518Z,0.90
2019-05-02T23:40:06.202Z,1.10
2019-05-02T23:42:35.198Z,0.93
2019-05-02T23:45:04.837Z,0.70
2019-05-02T23:47:33.834Z,0.73
2019-05-02T23:50:02.943Z,0.90
2019-05-02T23:52:31.947Z,0.60
2019-05-02T23:55:02.815Z,0.80
2019-05-02T23:57:32.463Z,0.80
